Snav Lazio — IBUH — position and weather

sailwx.info

Track history (hours):
 
Tides and Currents Weather Stations Pressure Air Temp Water Temp Dewpoint Dewpoint Depression Visibility Wind Speed Wind Dir Waves Ship Positions

Snav Lazio

Last reported at 2014-Aug-22 04:32 UTC. Time now 2014-Aug-22 06:01 UTC.
Position N 38°08' E 013°22'.

Length 162 m; draft 6 m.

Type: Passenger vessel. MMSI: 247163100.

Date/timePositionNaut miles runAvg speedWind from/ knotsBaromVisibWave heightAir tempDewpointWater temp
2014-Aug-22 04:32N 38°08' E 013°22'6 5.7
2014-Aug-22 03:34N 38°13' E 013°25'1818.3
2014-Aug-22 02:33N 38°31' E 013°31'5317.5
2014-Aug-21 23:33N 39°22' E 013°45'1717.5
2014-Aug-21 22:33N 39°39' E 013°51'2317.5
2014-Aug-21 21:16N 40°01' E 013°58'17 0.8
2014-Aug-21 00:15N 39°44' E 013°53'1217.4
2014-Aug-20 23:33N 39°33' E 013°49'1717.5
2014-Aug-20 22:34N 39°16' E 013°45'5217.4
2014-Aug-20 19:33N 38°24' E 013°30'1717.2
2014-Aug-20 18:34N 38°08' E 013°24'2 2.0
2014-Aug-20 17:31N 38°08' E 013°22'0 0.0
2014-Aug-20 16:31N 38°08' E 013°22'0 0.0
2014-Aug-20 15:31N 38°08' E 013°22'0 0.0
2014-Aug-20 14:31N 38°08' E 013°22'0 0.0
2014-Aug-20 13:31N 38°08' E 013°22'0 0.0
2014-Aug-20 12:31N 38°08' E 013°22'0 0.0
2014-Aug-20 11:31N 38°08' E 013°22'0 0.0
2014-Aug-20 10:31N 38°08' E 013°22'0 0.0
2014-Aug-20 09:31N 38°08' E 013°22'0 0.0
2014-Aug-20 08:31N 38°08' E 013°22'0 0.0
2014-Aug-20 07:31N 38°08' E 013°22'0 0.0
2014-Aug-20 06:31N 38°08' E 013°22'0 0.0
2014-Aug-20 05:31N 38°08' E 013°22'0 0.0
2014-Aug-20 04:31N 38°08' E 013°22'6 6.1
2014-Aug-20 03:34N 38°13' E 013°25'1918.8
2014-Aug-20 02:33N 38°32' E 013°31'1717.2
2014-Aug-20 01:33N 38°48' E 013°36'1817.6
2014-Aug-20 00:33N 39°05' E 013°41'1717.6
2014-Aug-19 23:34N 39°23' E 013°45'1817.5
2014-Aug-19 22:34N 39°40' E 013°51'1817.5
2014-Aug-19 21:33N 39°57' E 013°56'1817.7
2014-Aug-19 20:34N 40°14' E 014°01'1717.4
2014-Aug-19 19:34N 40°31' E 014°06'21 6.7
2014-Aug-19 16:29N 40°50' E 014°15'0 0.0
2014-Aug-19 15:14N 40°50' E 014°15'0 0.0
2014-Aug-19 14:23N 40°50' E 014°15'0 0.0
2014-Aug-19 13:29N 40°50' E 014°15'0 0.0
2014-Aug-19 12:29N 40°50' E 014°15'0 0.0
2014-Aug-19 08:26N 40°50' E 014°15'88 9.8
2014-Aug-18 23:30N 39°25' E 013°48'5619.0
2014-Aug-18 20:33N 38°30' E 013°32'1919.1
2014-Aug-18 19:33N 38°12' E 013°27'5 5.4
2014-Aug-18 18:33N 38°08' E 013°22'0 0.0
2014-Aug-18 17:33N 38°08' E 013°22'0 0.0
2014-Aug-18 16:33N 38°08' E 013°22'8 7.8
2014-Aug-18 15:33N 38°15' E 013°27'1919.3
2014-Aug-18 14:33N 38°34' E 013°32'27 1.3
2014-Aug-17 18:32N 38°08' E 013°22'0 0.0
2014-Aug-17 17:28N 38°08' E 013°22'0 0.0
2014-Aug-17 16:31N 38°08' E 013°22'9 9.2
2014-Aug-17 15:34N 38°16' E 013°27'1919.1
2014-Aug-17 14:34N 38°35' E 013°32'5 0.3
2014-Aug-16 20:33N 38°29' E 013°32'1918.9
2014-Aug-16 19:34N 38°11' E 013°26'5 4.5
2014-Aug-16 18:33N 38°08' E 013°22'0 0.0
2014-Aug-16 17:33N 38°08' E 013°22'0 0.0
2014-Aug-16 16:34N 38°08' E 013°22'1111.1
2014-Aug-16 15:33N 38°18' E 013°27'1919.1
2014-Aug-16 14:33N 38°37' E 013°33'10218.7
2014-Aug-16 09:07N 40°16' E 014°02'110 8.1
2014-Aug-15 19:33N 38°29' E 013°32'1717.4
2014-Aug-15 18:33N 38°12' E 013°27'5 5.1
2014-Aug-15 17:31N 38°08' E 013°22'0 0.0
2014-Aug-15 16:31N 38°08' E 013°22'0 0.0
2014-Aug-15 15:28N 38°08' E 013°22'0 0.0
2014-Aug-15 14:19N 38°08' E 013°22'0 0.0
2014-Aug-15 13:31N 38°08' E 013°22'0 0.0
2014-Aug-15 12:31N 38°08' E 013°22'0 0.0
2014-Aug-15 11:31N 38°08' E 013°22'0 0.0
2014-Aug-15 10:31N 38°08' E 013°22'0 0.0
2014-Aug-15 09:31N 38°08' E 013°22'0 0.0
2014-Aug-15 08:31N 38°08' E 013°22'0 0.0
2014-Aug-15 07:31N 38°08' E 013°22'0 0.0
2014-Aug-15 06:31N 38°08' E 013°22'0 0.0
2014-Aug-15 05:31N 38°08' E 013°22'1 1.3
2014-Aug-15 04:33N 38°07' E 013°23'1616.3
2014-Aug-15 03:34N 38°23' E 013°29'1918.7
2014-Aug-15 02:34N 38°41' E 013°34'6018.4
2014-Aug-14 23:18N 39°39' E 013°52'52 2.4
2014-Aug-14 01:32N 38°48' E 013°38'2117.0
2014-Aug-14 00:17N 39°09' E 013°43'1217.1
2014-Aug-13 23:34N 39°22' E 013°46'1717.1
2014-Aug-13 22:33N 39°38' E 013°51'1717.3
2014-Aug-13 21:34N 39°55' E 013°56'1717.4
2014-Aug-13 20:33N 40°12' E 014°01'1717.5
2014-Aug-13 19:33N 40°29' E 014°06'1717.3
2014-Aug-13 18:33N 40°45' E 014°14'5 1.8
2014-Aug-13 15:33N 40°50' E 014°15'0 0.0
2014-Aug-13 12:24N 40°50' E 014°15'0 0.0
2014-Aug-13 11:30N 40°50' E 014°15'0 0.0
2014-Aug-13 10:32N 40°50' E 014°15'0 0.0
2014-Aug-13 09:33N 40°50' E 014°15'0 0.0
2014-Aug-13 08:33N 40°50' E 014°15'0 0.0
2014-Aug-13 07:27N 40°50' E 014°15'7 1.8
2014-Aug-13 03:32N 40°43' E 014°14'5217.6
2014-Aug-13 00:33N 39°53' E 013°56'1717.3
2014-Aug-12 23:33N 39°36' E 013°51'1717.4
2014-Aug-12 22:33N 39°19' E 013°46'1717.4
2014-Aug-12 21:33N 39°02' E 013°41'2417.6
2014-Aug-12 20:13N 38°39' E 013°34'1116.5
2014-Aug-12 19:33N 38°28' E 013°31'1817.6
2014-Aug-12 18:33N 38°11' E 013°27'5 4.8
2014-Aug-12 17:31N 38°08' E 013°22'0 0.0
2014-Aug-12 16:31N 38°08' E 013°22'0 0.0
2014-Aug-12 15:31N 38°08' E 013°22'0 0.0
2014-Aug-12 14:31N 38°08' E 013°22'0 0.0
2014-Aug-12 13:31N 38°08' E 013°22'0 0.0
2014-Aug-12 12:31N 38°08' E 013°22'0 0.0
2014-Aug-12 11:31N 38°08' E 013°22'0 0.0
2014-Aug-12 10:31N 38°08' E 013°22'0 0.0
2014-Aug-12 09:31N 38°08' E 013°22'0 0.0
2014-Aug-12 08:31N 38°08' E 013°22'0 0.0
2014-Aug-12 07:31N 38°08' E 013°22'0 0.0
2014-Aug-12 06:31N 38°08' E 013°22'0 0.0
2014-Aug-12 05:31N 38°08' E 013°22'1 0.7
2014-Aug-12 04:33N 38°08' E 013°22'  
Track history (hours):
 
Tides and Currents Weather Stations Pressure Air Temp Water Temp Dewpoint Dewpoint Depression Visibility Wind Speed Wind Dir Waves Ship Positions

Snav Lazio

Last reported at 2014-Aug-22 04:32 UTC. Time now 2014-Aug-22 06:01 UTC.
Position N 38°08' E 013°22'.

Length 162 m; draft 6 m.

Type: Passenger vessel. MMSI: 247163100.

Date/timePositionNaut miles runAvg speedWind from/ knotsBaromVisibWave heightAir tempDewpointWater temp
2014-Aug-22 04:32N 38°08' E 013°22'6 5.7
2014-Aug-22 03:34N 38°13' E 013°25'1818.3
2014-Aug-22 02:33N 38°31' E 013°31'5317.5
2014-Aug-21 23:33N 39°22' E 013°45'1717.5
2014-Aug-21 22:33N 39°39' E 013°51'2317.5
2014-Aug-21 21:16N 40°01' E 013°58'17 0.8
2014-Aug-21 00:15N 39°44' E 013°53'1217.4
2014-Aug-20 23:33N 39°33' E 013°49'1717.5
2014-Aug-20 22:34N 39°16' E 013°45'5217.4
2014-Aug-20 19:33N 38°24' E 013°30'1717.2
2014-Aug-20 18:34N 38°08' E 013°24'2 2.0
2014-Aug-20 17:31N 38°08' E 013°22'0 0.0
2014-Aug-20 16:31N 38°08' E 013°22'0 0.0
2014-Aug-20 15:31N 38°08' E 013°22'0 0.0
2014-Aug-20 14:31N 38°08' E 013°22'0 0.0
2014-Aug-20 13:31N 38°08' E 013°22'0 0.0
2014-Aug-20 12:31N 38°08' E 013°22'0 0.0
2014-Aug-20 11:31N 38°08' E 013°22'0 0.0
2014-Aug-20 10:31N 38°08' E 013°22'0 0.0
2014-Aug-20 09:31N 38°08' E 013°22'0 0.0
2014-Aug-20 08:31N 38°08' E 013°22'0 0.0
2014-Aug-20 07:31N 38°08' E 013°22'0 0.0
2014-Aug-20 06:31N 38°08' E 013°22'0 0.0
2014-Aug-20 05:31N 38°08' E 013°22'0 0.0
2014-Aug-20 04:31N 38°08' E 013°22'6 6.1
2014-Aug-20 03:34N 38°13' E 013°25'1918.8
2014-Aug-20 02:33N 38°32' E 013°31'1717.2
2014-Aug-20 01:33N 38°48' E 013°36'1817.6
2014-Aug-20 00:33N 39°05' E 013°41'1717.6
2014-Aug-19 23:34N 39°23' E 013°45'1817.5
2014-Aug-19 22:34N 39°40' E 013°51'1817.5
2014-Aug-19 21:33N 39°57' E 013°56'1817.7
2014-Aug-19 20:34N 40°14' E 014°01'1717.4
2014-Aug-19 19:34N 40°31' E 014°06'21 6.7
2014-Aug-19 16:29N 40°50' E 014°15'0 0.0
2014-Aug-19 15:14N 40°50' E 014°15'0 0.0
2014-Aug-19 14:23N 40°50' E 014°15'0 0.0
2014-Aug-19 13:29N 40°50' E 014°15'0 0.0
2014-Aug-19 12:29N 40°50' E 014°15'0 0.0
2014-Aug-19 08:26N 40°50' E 014°15'88 9.8
2014-Aug-18 23:30N 39°25' E 013°48'5619.0
2014-Aug-18 20:33N 38°30' E 013°32'1919.1
2014-Aug-18 19:33N 38°12' E 013°27'5 5.4
2014-Aug-18 18:33N 38°08' E 013°22'0 0.0
2014-Aug-18 17:33N 38°08' E 013°22'0 0.0
2014-Aug-18 16:33N 38°08' E 013°22'8 7.8
2014-Aug-18 15:33N 38°15' E 013°27'1919.3
2014-Aug-18 14:33N 38°34' E 013°32'27 1.3
2014-Aug-17 18:32N 38°08' E 013°22'0 0.0
2014-Aug-17 17:28N 38°08' E 013°22'0 0.0
2014-Aug-17 16:31N 38°08' E 013°22'9 9.2
2014-Aug-17 15:34N 38°16' E 013°27'1919.1
2014-Aug-17 14:34N 38°35' E 013°32'5 0.3
2014-Aug-16 20:33N 38°29' E 013°32'1918.9
2014-Aug-16 19:34N 38°11' E 013°26'5 4.5
2014-Aug-16 18:33N 38°08' E 013°22'0 0.0
2014-Aug-16 17:33N 38°08' E 013°22'0 0.0
2014-Aug-16 16:34N 38°08' E 013°22'1111.1
2014-Aug-16 15:33N 38°18' E 013°27'1919.1
2014-Aug-16 14:33N 38°37' E 013°33'10218.7
2014-Aug-16 09:07N 40°16' E 014°02'110 8.1
2014-Aug-15 19:33N 38°29' E 013°32'1717.4
2014-Aug-15 18:33N 38°12' E 013°27'5 5.1
2014-Aug-15 17:31N 38°08' E 013°22'0 0.0
2014-Aug-15 16:31N 38°08' E 013°22'0 0.0
2014-Aug-15 15:28N 38°08' E 013°22'0 0.0
2014-Aug-15 14:19N 38°08' E 013°22'0 0.0
2014-Aug-15 13:31N 38°08' E 013°22'0 0.0
2014-Aug-15 12:31N 38°08' E 013°22'0 0.0
2014-Aug-15 11:31N 38°08' E 013°22'0 0.0
2014-Aug-15 10:31N 38°08' E 013°22'0 0.0
2014-Aug-15 09:31N 38°08' E 013°22'0 0.0
2014-Aug-15 08:31N 38°08' E 013°22'0 0.0
2014-Aug-15 07:31N 38°08' E 013°22'0 0.0
2014-Aug-15 06:31N 38°08' E 013°22'0 0.0
2014-Aug-15 05:31N 38°08' E 013°22'1 1.3
2014-Aug-15 04:33N 38°07' E 013°23'1616.3
2014-Aug-15 03:34N 38°23' E 013°29'1918.7
2014-Aug-15 02:34N 38°41' E 013°34'6018.4
2014-Aug-14 23:18N 39°39' E 013°52'52 2.4
2014-Aug-14 01:32N 38°48' E 013°38'2117.0
2014-Aug-14 00:17N 39°09' E 013°43'1217.1
2014-Aug-13 23:34N 39°22' E 013°46'1717.1
2014-Aug-13 22:33N 39°38' E 013°51'1717.3
2014-Aug-13 21:34N 39°55' E 013°56'1717.4
2014-Aug-13 20:33N 40°12' E 014°01'1717.5
2014-Aug-13 19:33N 40°29' E 014°06'1717.3
2014-Aug-13 18:33N 40°45' E 014°14'5 1.8
2014-Aug-13 15:33N 40°50' E 014°15'0 0.0
2014-Aug-13 12:24N 40°50' E 014°15'0 0.0
2014-Aug-13 11:30N 40°50' E 014°15'0 0.0
2014-Aug-13 10:32N 40°50' E 014°15'0 0.0
2014-Aug-13 09:33N 40°50' E 014°15'0 0.0
2014-Aug-13 08:33N 40°50' E 014°15'0 0.0
2014-Aug-13 07:27N 40°50' E 014°15'7 1.8
2014-Aug-13 03:32N 40°43' E 014°14'5217.6
2014-Aug-13 00:33N 39°53' E 013°56'1717.3
2014-Aug-12 23:33N 39°36' E 013°51'1717.4
2014-Aug-12 22:33N 39°19' E 013°46'1717.4
2014-Aug-12 21:33N 39°02' E 013°41'2417.6
2014-Aug-12 20:13N 38°39' E 013°34'1116.5
2014-Aug-12 19:33N 38°28' E 013°31'1817.6
2014-Aug-12 18:33N 38°11' E 013°27'5 4.8
2014-Aug-12 17:31N 38°08' E 013°22'0 0.0
2014-Aug-12 16:31N 38°08' E 013°22'0 0.0
2014-Aug-12 15:31N 38°08' E 013°22'0 0.0
2014-Aug-12 14:31N 38°08' E 013°22'0 0.0
2014-Aug-12 13:31N 38°08' E 013°22'0 0.0
2014-Aug-12 12:31N 38°08' E 013°22'0 0.0
2014-Aug-12 11:31N 38°08' E 013°22'0 0.0
2014-Aug-12 10:31N 38°08' E 013°22'0 0.0
2014-Aug-12 09:31N 38°08' E 013°22'0 0.0
2014-Aug-12 08:31N 38°08' E 013°22'0 0.0
2014-Aug-12 07:31N 38°08' E 013°22'0 0.0
2014-Aug-12 06:31N 38°08' E 013°22'0 0.0
2014-Aug-12 05:31N 38°08' E 013°22'1 0.7
2014-Aug-12 04:33N 38°08' E 013°22'  

Dump ship's entire track history